sensor_id;sensor_type;location;lat;lon;timestamp;temperature;humidity
37678;DHT22;23517;50.390;8.616;2023-01-29T00:00:04;-0.90;56.70
37678;DHT22;23517;50.390;8.616;2023-01-29T00:02:36;-0.90;56.70
37678;DHT22;23517;50.390;8.616;2023-01-29T00:05:04;-0.80;56.50
37678;DHT22;23517;50.390;8.616;2023-01-29T00:07:52;-0.80;55.70
37678;DHT22;23517;50.390;8.616;2023-01-29T00:10:18;-0.80;54.40
37678;DHT22;23517;50.390;8.616;2023-01-29T00:12:45;-0.80;54.60
37678;DHT22;23517;50.390;8.616;2023-01-29T00:15:11;-0.70;54.80
37678;DHT22;23517;50.390;8.616;2023-01-29T00:17:40;-0.70;55.10
37678;DHT22;23517;50.390;8.616;2023-01-29T00:20:07;-0.70;55.20
37678;DHT22;23517;50.390;8.616;2023-01-29T00:22:34;-0.70;55.20
37678;DHT22;23517;50.390;8.616;2023-01-29T00:25:02;-0.80;54.80
37678;DHT22;23517;50.390;8.616;2023-01-29T00:27:30;-0.80;54.70
37678;DHT22;23517;50.390;8.616;2023-01-29T00:29:57;-0.80;54.50
37678;DHT22;23517;50.390;8.616;2023-01-29T00:32:39;-0.80;54.40
37678;DHT22;23517;50.390;8.616;2023-01-29T00:35:06;-0.80;52.60
37678;DHT22;23517;50.390;8.616;2023-01-29T00:37:34;-0.80;53.00
37678;DHT22;23517;50.390;8.616;2023-01-29T00:40:01;-0.80;53.30
37678;DHT22;23517;50.390;8.616;2023-01-29T00:42:27;-0.80;53.80
37678;DHT22;23517;50.390;8.616;2023-01-29T00:45:13;-0.90;54.00
37678;DHT22;23517;50.390;8.616;2023-01-29T00:47:39;-0.90;53.90
37678;DHT22;23517;50.390;8.616;2023-01-29T00:50:08;-0.80;53.90
37678;DHT22;23517;50.390;8.616;2023-01-29T00:52:36;-0.80;53.50
37678;DHT22;23517;50.390;8.616;2023-01-29T00:55:04;-0.80;53.20
37678;DHT22;23517;50.390;8.616;2023-01-29T00:57:33;-0.80;52.10
37678;DHT22;23517;50.390;8.616;2023-01-29T01:00:04;-0.70;51.20
37678;DHT22;23517;50.390;8.616;2023-01-29T01:02:33;-0.70;48.80
37678;DHT22;23517;50.390;8.616;2023-01-29T01:05:19;-0.70;48.10
37678;DHT22;23517;50.390;8.616;2023-01-29T01:07:55;-0.70;47.50
37678;DHT22;23517;50.390;8.616;2023-01-29T01:10:25;-0.70;48.60
37678;DHT22;23517;50.390;8.616;2023-01-29T01:13:00;-0.80;50.10
37678;DHT22;23517;50.390;8.616;2023-01-29T01:15:33;-0.80;49.20
37678;DHT22;23517;50.390;8.616;2023-01-29T01:18:03;-0.90;49.30
37678;DHT22;23517;50.390;8.616;2023-01-29T01:20:32;-0.80;48.40
37678;DHT22;23517;50.390;8.616;2023-01-29T01:23:01;-0.60;47.40
37678;DHT22;23517;50.390;8.616;2023-01-29T01:25:28;-0.60;46.70
37678;DHT22;23517;50.390;8.616;2023-01-29T01:27:56;-0.60;47.30
37678;DHT22;23517;50.390;8.616;2023-01-29T01:30:24;-0.60;46.50
37678;DHT22;23517;50.390;8.616;2023-01-29T01:32:52;-0.70;46.50
37678;DHT22;23517;50.390;8.616;2023-01-29T01:35:19;-0.80;46.60
37678;DHT22;23517;50.390;8.616;2023-01-29T01:37:45;-0.80;47.40
37678;DHT22;23517;50.390;8.616;2023-01-29T01:40:15;-0.80;47.70
37678;DHT22;23517;50.390;8.616;2023-01-29T01:42:53;-0.80;48.00
37678;DHT22;23517;50.390;8.616;2023-01-29T01:48:09;-0.80;48.50
37678;DHT22;23517;50.390;8.616;2023-01-29T01:51:01;-0.80;49.00
37678;DHT22;23517;50.390;8.616;2023-01-29T01:53:38;-0.80;49.70
37678;DHT22;23517;50.390;8.616;2023-01-29T01:56:13;-0.80;49.90
37678;DHT22;23517;50.390;8.616;2023-01-29T01:58:49;-0.80;50.20
37678;DHT22;23517;50.390;8.616;2023-01-29T02:01:18;-0.80;51.20
37678;DHT22;23517;50.390;8.616;2023-01-29T02:04:05;-0.90;50.50
37678;DHT22;23517;50.390;8.616;2023-01-29T02:06:53;-0.90;50.50
37678;DHT22;23517;50.390;8.616;2023-01-29T02:09:43;-0.90;51.40
37678;DHT22;23517;50.390;8.616;2023-01-29T02:12:15;-1.00;51.90
37678;DHT22;23517;50.390;8.616;2023-01-29T02:14:42;-1.00;53.00
37678;DHT22;23517;50.390;8.616;2023-01-29T02:17:14;-1.10;53.00
37678;DHT22;23517;50.390;8.616;2023-01-29T02:20:18;-1.10;53.40
37678;DHT22;23517;50.390;8.616;2023-01-29T02:23:15;-1.10;54.00
37678;DHT22;23517;50.390;8.616;2023-01-29T02:26:03;-1.20;54.20
37678;DHT22;23517;50.390;8.616;2023-01-29T02:31:31;-1.20;54.40
37678;DHT22;23517;50.390;8.616;2023-01-29T02:34:18;-1.30;54.80
37678;DHT22;23517;50.390;8.616;2023-01-29T02:37:03;-1.40;55.10
37678;DHT22;23517;50.390;8.616;2023-01-29T02:40:00;-1.50;55.30
37678;DHT22;23517;50.390;8.616;2023-01-29T02:42:50;-1.50;56.10
37678;DHT22;23517;50.390;8.616;2023-01-29T02:45:36;-1.60;56.20
37678;DHT22;23517;50.390;8.616;2023-01-29T02:48:19;-1.60;56.50
37678;DHT22;23517;50.390;8.616;2023-01-29T02:51:04;-1.70;56.40
37678;DHT22;23517;50.390;8.616;2023-01-29T02:53:56;-1.80;56.40
37678;DHT22;23517;50.390;8.616;2023-01-29T02:56:50;-1.90;56.90
37678;DHT22;23517;50.390;8.616;2023-01-29T02:59:31;-1.90;57.40
37678;DHT22;23517;50.390;8.616;2023-01-29T03:02:14;-2.00;57.60
37678;DHT22;23517;50.390;8.616;2023-01-29T03:04:49;-2.00;57.40
37678;DHT22;23517;50.390;8.616;2023-01-29T03:07:25;-2.00;58.00
37678;DHT22;23517;50.390;8.616;2023-01-29T03:10:25;-2.10;57.70
37678;DHT22;23517;50.390;8.616;2023-01-29T03:13:11;-2.20;58.30
37678;DHT22;23517;50.390;8.616;2023-01-29T03:16:08;-2.20;58.70
37678;DHT22;23517;50.390;8.616;2023-01-29T03:18:54;-2.30;58.30
37678;DHT22;23517;50.390;8.616;2023-01-29T03:21:43;-2.30;58.70
37678;DHT22;23517;50.390;8.616;2023-01-29T03:27:28;-2.40;58.80
37678;DHT22;23517;50.390;8.616;2023-01-29T03:30:18;-2.50;59.00
37678;DHT22;23517;50.390;8.616;2023-01-29T03:33:07;-2.50;59.10
37678;DHT22;23517;50.390;8.616;2023-01-29T03:35:39;-2.50;59.10
37678;DHT22;23517;50.390;8.616;2023-01-29T03:38:10;-2.50;58.70
37678;DHT22;23517;50.390;8.616;2023-01-29T03:43:49;-2.70;59.20
37678;DHT22;23517;50.390;8.616;2023-01-29T03:46:31;-2.70;59.70
37678;DHT22;23517;50.390;8.616;2023-01-29T03:49:14;-2.70;59.80
37678;DHT22;23517;50.390;8.616;2023-01-29T03:51:51;-2.80;59.70
37678;DHT22;23517;50.390;8.616;2023-01-29T03:54:56;-2.80;59.30
37678;DHT22;23517;50.390;8.616;2023-01-29T03:58:19;-2.70;59.90
37678;DHT22;23517;50.390;8.616;2023-01-29T04:01:01;-2.70;59.50
37678;DHT22;23517;50.390;8.616;2023-01-29T04:03:35;-2.80;59.80
37678;DHT22;23517;50.390;8.616;2023-01-29T04:06:18;-2.80;58.90
37678;DHT22;23517;50.390;8.616;2023-01-29T04:09:04;-2.80;59.20
37678;DHT22;23517;50.390;8.616;2023-01-29T04:11:38;-2.90;59.30
37678;DHT22;23517;50.390;8.616;2023-01-29T04:14:08;-2.90;59.50
37678;DHT22;23517;50.390;8.616;2023-01-29T04:16:39;-3.00;59.40
37678;DHT22;23517;50.390;8.616;2023-01-29T04:19:07;-3.00;60.00
37678;DHT22;23517;50.390;8.616;2023-01-29T04:21:34;-3.00;60.20
37678;DHT22;23517;50.390;8.616;2023-01-29T04:24:04;-3.00;60.30
37678;DHT22;23517;50.390;8.616;2023-01-29T04:27:25;-3.10;59.80
37678;DHT22;23517;50.390;8.616;2023-01-29T04:30:02;-3.10;60.10
37678;DHT22;23517;50.390;8.616;2023-01-29T04:36:06;-3.20;60.50
37678;DHT22;23517;50.390;8.616;2023-01-29T04:39:18;-3.20;60.10
37678;DHT22;23517;50.390;8.616;2023-01-29T04:41:58;-3.30;60.60
37678;DHT22;23517;50.390;8.616;2023-01-29T04:44:43;-3.30;61.60
37678;DHT22;23517;50.390;8.616;2023-01-29T04:50:39;-3.30;62.20
37678;DHT22;23517;50.390;8.616;2023-01-29T04:53:23;-3.20;61.80
37678;DHT22;23517;50.390;8.616;2023-01-29T04:56:08;-3.20;61.40
37678;DHT22;23517;50.390;8.616;2023-01-29T04:58:50;-2.70;61.50
37678;DHT22;23517;50.390;8.616;2023-01-29T05:01:22;-3.30;60.50
37678;DHT22;23517;50.390;8.616;2023-01-29T05:03:55;-3.30;60.60
37678;DHT22;23517;50.390;8.616;2023-01-29T05:06:23;-3.30;61.20
37678;DHT22;23517;50.390;8.616;2023-01-29T05:08:51;-3.30;61.30
37678;DHT22;23517;50.390;8.616;2023-01-29T05:11:19;-3.30;61.30
37678;DHT22;23517;50.390;8.616;2023-01-29T05:13:52;-3.40;60.80
37678;DHT22;23517;50.390;8.616;2023-01-29T05:16:24;-3.40;61.30
37678;DHT22;23517;50.390;8.616;2023-01-29T05:18:52;-3.40;61.70
37678;DHT22;23517;50.390;8.616;2023-01-29T05:21:20;-3.50;61.40
37678;DHT22;23517;50.390;8.616;2023-01-29T05:24:09;-3.50;61.80
37678;DHT22;23517;50.390;8.616;2023-01-29T05:26:38;-3.50;61.30
37678;DHT22;23517;50.390;8.616;2023-01-29T05:29:23;-3.50;61.70
37678;DHT22;23517;50.390;8.616;2023-01-29T05:31:52;-3.50;61.90
37678;DHT22;23517;50.390;8.616;2023-01-29T05:34:19;-3.50;61.70
37678;DHT22;23517;50.390;8.616;2023-01-29T05:36:46;-3.50;61.80
37678;DHT22;23517;50.390;8.616;2023-01-29T05:39:12;-3.50;61.70
37678;DHT22;23517;50.390;8.616;2023-01-29T05:41:39;-3.50;61.60
37678;DHT22;23517;50.390;8.616;2023-01-29T05:44:06;-3.50;61.70
37678;DHT22;23517;50.390;8.616;2023-01-29T05:46:32;-3.50;61.90
37678;DHT22;23517;50.390;8.616;2023-01-29T05:48:59;-3.50;61.80
37678;DHT22;23517;50.390;8.616;2023-01-29T05:51:30;-3.40;61.90
37678;DHT22;23517;50.390;8.616;2023-01-29T05:54:00;-3.40;61.30
37678;DHT22;23517;50.390;8.616;2023-01-29T05:56:26;-3.40;61.50
37678;DHT22;23517;50.390;8.616;2023-01-29T05:58:54;-3.40;61.40
37678;DHT22;23517;50.390;8.616;2023-01-29T06:01:23;-3.40;61.80
37678;DHT22;23517;50.390;8.616;2023-01-29T06:03:51;-3.30;60.80
37678;DHT22;23517;50.390;8.616;2023-01-29T06:06:17;-3.40;60.40
37678;DHT22;23517;50.390;8.616;2023-01-29T06:08:44;-3.40;61.20
37678;DHT22;23517;50.390;8.616;2023-01-29T06:11:12;-3.40;62.10
37678;DHT22;23517;50.390;8.616;2023-01-29T06:13:40;-3.40;61.50
37678;DHT22;23517;50.390;8.616;2023-01-29T06:16:07;-3.40;61.10
37678;DHT22;23517;50.390;8.616;2023-01-29T06:18:38;-3.50;61.40
37678;DHT22;23517;50.390;8.616;2023-01-29T06:21:09;-3.50;62.60
37678;DHT22;23517;50.390;8.616;2023-01-29T06:23:37;-3.50;62.50
37678;DHT22;23517;50.390;8.616;2023-01-29T06:26:10;-3.50;62.80
37678;DHT22;23517;50.390;8.616;2023-01-29T06:28:38;-3.60;63.30
37678;DHT22;23517;50.390;8.616;2023-01-29T06:31:06;-3.60;64.00
37678;DHT22;23517;50.390;8.616;2023-01-29T06:33:53;-3.60;63.60
37678;DHT22;23517;50.390;8.616;2023-01-29T06:36:30;-3.50;63.90
37678;DHT22;23517;50.390;8.616;2023-01-29T06:38:57;-3.50;63.30
37678;DHT22;23517;50.390;8.616;2023-01-29T06:41:23;-3.50;64.10
37678;DHT22;23517;50.390;8.616;2023-01-29T06:43:51;-3.50;64.20
37678;DHT22;23517;50.390;8.616;2023-01-29T06:46:18;-3.50;64.00
37678;DHT22;23517;50.390;8.616;2023-01-29T06:48:45;-3.50;65.20
37678;DHT22;23517;50.390;8.616;2023-01-29T06:51:12;-3.50;65.00
37678;DHT22;23517;50.390;8.616;2023-01-29T06:53:40;-3.50;64.60
37678;DHT22;23517;50.390;8.616;2023-01-29T06:56:10;-3.50;64.80
37678;DHT22;23517;50.390;8.616;2023-01-29T06:58:37;-3.50;64.80
37678;DHT22;23517;50.390;8.616;2023-01-29T07:01:09;-3.50;65.30
37678;DHT22;23517;50.390;8.616;2023-01-29T07:03:50;-3.50;64.90
37678;DHT22;23517;50.390;8.616;2023-01-29T07:06:18;-3.50;65.20
37678;DHT22;23517;50.390;8.616;2023-01-29T07:08:45;-3.50;64.60
37678;DHT22;23517;50.390;8.616;2023-01-29T07:11:11;-3.50;64.30
37678;DHT22;23517;50.390;8.616;2023-01-29T07:13:38;-3.50;64.30
37678;DHT22;23517;50.390;8.616;2023-01-29T07:16:05;-3.50;64.00
37678;DHT22;23517;50.390;8.616;2023-01-29T07:18:32;-3.50;63.80
37678;DHT22;23517;50.390;8.616;2023-01-29T07:21:03;-3.50;63.90
37678;DHT22;23517;50.390;8.616;2023-01-29T07:23:32;-3.50;64.30
37678;DHT22;23517;50.390;8.616;2023-01-29T07:26:01;-3.50;63.30
37678;DHT22;23517;50.390;8.616;2023-01-29T07:28:30;-3.50;63.40
37678;DHT22;23517;50.390;8.616;2023-01-29T07:30:59;-3.50;63.70
37678;DHT22;23517;50.390;8.616;2023-01-29T07:33:26;-3.40;63.40
37678;DHT22;23517;50.390;8.616;2023-01-29T07:35:52;-3.50;62.70
37678;DHT22;23517;50.390;8.616;2023-01-29T07:38:19;-3.40;62.40
37678;DHT22;23517;50.390;8.616;2023-01-29T07:40:46;-3.50;62.70
37678;DHT22;23517;50.390;8.616;2023-01-29T07:43:13;-3.40;63.10
37678;DHT22;23517;50.390;8.616;2023-01-29T07:45:40;-3.30;62.30
37678;DHT22;23517;50.390;8.616;2023-01-29T07:48:10;-3.20;61.60
37678;DHT22;23517;50.390;8.616;2023-01-29T07:50:38;-3.20;61.40
37678;DHT22;23517;50.390;8.616;2023-01-29T07:53:05;-3.20;62.40
37678;DHT22;23517;50.390;8.616;2023-01-29T07:55:32;-3.20;62.30
37678;DHT22;23517;50.390;8.616;2023-01-29T07:58:01;-3.00;62.10
37678;DHT22;23517;50.390;8.616;2023-01-29T08:00:29;-3.00;61.40
37678;DHT22;23517;50.390;8.616;2023-01-29T08:03:04;-2.90;61.30
37678;DHT22;23517;50.390;8.616;2023-01-29T08:05:33;-2.80;60.50
37678;DHT22;23517;50.390;8.616;2023-01-29T08:07:59;-2.80;60.40
37678;DHT22;23517;50.390;8.616;2023-01-29T08:10:34;-2.80;60.90
37678;DHT22;23517;50.390;8.616;2023-01-29T08:13:02;-2.80;61.10
37678;DHT22;23517;50.390;8.616;2023-01-29T08:15:30;-2.70;61.40
37678;DHT22;23517;50.390;8.616;2023-01-29T08:17:57;-2.60;61.50
37678;DHT22;23517;50.390;8.616;2023-01-29T08:20:24;-2.40;61.70
37678;DHT22;23517;50.390;8.616;2023-01-29T08:23:20;-2.20;62.00
37678;DHT22;23517;50.390;8.616;2023-01-29T08:25:47;-1.80;60.20
37678;DHT22;23517;50.390;8.616;2023-01-29T08:28:14;-1.70;57.70
37678;DHT22;23517;50.390;8.616;2023-01-29T08:30:40;-1.50;57.50
37678;DHT22;23517;50.390;8.616;2023-01-29T08:33:07;-1.40;56.40
37678;DHT22;23517;50.390;8.616;2023-01-29T08:35:34;-1.20;56.10
37678;DHT22;23517;50.390;8.616;2023-01-29T08:38:02;-1.10;55.80
37678;DHT22;23517;50.390;8.616;2023-01-29T08:40:32;-1.00;55.00
37678;DHT22;23517;50.390;8.616;2023-01-29T08:43:01;-0.90;55.10
37678;DHT22;23517;50.390;8.616;2023-01-29T08:45:37;-0.90;54.60
37678;DHT22;23517;50.390;8.616;2023-01-29T08:48:06;-0.80;54.60
37678;DHT22;23517;50.390;8.616;2023-01-29T08:50:36;-0.70;53.60
37678;DHT22;23517;50.390;8.616;2023-01-29T08:53:13;-0.60;52.80
37678;DHT22;23517;50.390;8.616;2023-01-29T08:55:40;-0.50;52.90
37678;DHT22;23517;50.390;8.616;2023-01-29T08:58:10;-0.40;52.30
37678;DHT22;23517;50.390;8.616;2023-01-29T09:00:37;-0.40;51.60
37678;DHT22;23517;50.390;8.616;2023-01-29T09:03:04;-0.50;51.90
37678;DHT22;23517;50.390;8.616;2023-01-29T09:05:37;-0.50;51.90
37678;DHT22;23517;50.390;8.616;2023-01-29T09:08:14;-0.50;52.30
37678;DHT22;23517;50.390;8.616;2023-01-29T09:10:41;-0.50;52.20
37678;DHT22;23517;50.390;8.616;2023-01-29T09:13:07;-0.40;51.60
37678;DHT22;23517;50.390;8.616;2023-01-29T09:15:34;-0.30;51.60
37678;DHT22;23517;50.390;8.616;2023-01-29T09:18:04;-0.30;51.20
37678;DHT22;23517;50.390;8.616;2023-01-29T09:20:31;-0.40;51.00
37678;DHT22;23517;50.390;8.616;2023-01-29T09:23:05;-0.40;51.00
37678;DHT22;23517;50.390;8.616;2023-01-29T09:25:34;-0.40;50.10
37678;DHT22;23517;50.390;8.616;2023-01-29T09:28:00;-0.40;50.90
37678;DHT22;23517;50.390;8.616;2023-01-29T09:30:28;-0.40;50.80
37678;DHT22;23517;50.390;8.616;2023-01-29T09:32:55;-0.40;51.00
37678;DHT22;23517;50.390;8.616;2023-01-29T09:35:24;-0.30;50.70
37678;DHT22;23517;50.390;8.616;2023-01-29T09:37:59;-0.40;49.50
37678;DHT22;23517;50.390;8.616;2023-01-29T09:40:40;-0.30;48.90
37678;DHT22;23517;50.390;8.616;2023-01-29T09:43:45;-0.40;49.10
37678;DHT22;23517;50.390;8.616;2023-01-29T09:48:57;-0.10;49.10
37678;DHT22;23517;50.390;8.616;2023-01-29T09:51:31;-0.10;48.20
37678;DHT22;23517;50.390;8.616;2023-01-29T09:54:23;0.00;48.20
37678;DHT22;23517;50.390;8.616;2023-01-29T09:56:54;0.00;48.30
37678;DHT22;23517;50.390;8.616;2023-01-29T09:59:24;0.20;49.20
37678;DHT22;23517;50.390;8.616;2023-01-29T10:02:09;0.10;47.50
37678;DHT22;23517;50.390;8.616;2023-01-29T10:05:15;0.20;47.00
37678;DHT22;23517;50.390;8.616;2023-01-29T10:17:32;0.40;46.90
37678;DHT22;23517;50.390;8.616;2023-01-29T10:23:12;0.70;46.30
37678;DHT22;23517;50.390;8.616;2023-01-29T10:25:45;0.90;45.30
37678;DHT22;23517;50.390;8.616;2023-01-29T10:30:56;1.30;43.10
37678;DHT22;23517;50.390;8.616;2023-01-29T10:33:39;1.40;42.00
37678;DHT22;23517;50.390;8.616;2023-01-29T10:36:37;1.20;41.90
37678;DHT22;23517;50.390;8.616;2023-01-29T10:39:21;1.20;42.40
37678;DHT22;23517;50.390;8.616;2023-01-29T10:41:54;1.40;42.00
37678;DHT22;23517;50.390;8.616;2023-01-29T10:51:11;1.20;41.90
37678;DHT22;23517;50.390;8.616;2023-01-29T10:54:09;1.20;41.80
37678;DHT22;23517;50.390;8.616;2023-01-29T11:02:20;1.60;41.20
37678;DHT22;23517;50.390;8.616;2023-01-29T11:04:48;1.50;42.10
37678;DHT22;23517;50.390;8.616;2023-01-29T11:07:17;1.60;42.60
37678;DHT22;23517;50.390;8.616;2023-01-29T11:12:26;2.00;39.80
37678;DHT22;23517;50.390;8.616;2023-01-29T11:20:30;2.20;39.20
37678;DHT22;23517;50.390;8.616;2023-01-29T11:22:57;2.10;39.50
37678;DHT22;23517;50.390;8.616;2023-01-29T11:25:25;2.20;39.30
37678;DHT22;23517;50.390;8.616;2023-01-29T11:27:58;2.10;38.80
37678;DHT22;23517;50.390;8.616;2023-01-29T11:30:28;2.10;38.30
37678;DHT22;23517;50.390;8.616;2023-01-29T11:33:18;2.00;38.60
37678;DHT22;23517;50.390;8.616;2023-01-29T11:35:46;2.00;38.80
37678;DHT22;23517;50.390;8.616;2023-01-29T11:38:17;2.00;39.00
37678;DHT22;23517;50.390;8.616;2023-01-29T11:40:47;2.00;38.70
37678;DHT22;23517;50.390;8.616;2023-01-29T11:43:30;2.10;38.70
37678;DHT22;23517;50.390;8.616;2023-01-29T11:46:05;2.00;38.90
37678;DHT22;23517;50.390;8.616;2023-01-29T11:48:44;1.90;38.70
37678;DHT22;23517;50.390;8.616;2023-01-29T11:51:26;1.90;39.30
37678;DHT22;23517;50.390;8.616;2023-01-29T11:54:04;1.80;39.90
37678;DHT22;23517;50.390;8.616;2023-01-29T11:56:40;1.70;40.00
37678;DHT22;23517;50.390;8.616;2023-01-29T11:59:37;1.80;39.40
37678;DHT22;23517;50.390;8.616;2023-01-29T12:02:22;1.80;39.60
37678;DHT22;23517;50.390;8.616;2023-01-29T12:04:54;1.70;39.70
37678;DHT22;23517;50.390;8.616;2023-01-29T12:07:24;1.70;39.40
37678;DHT22;23517;50.390;8.616;2023-01-29T12:09:56;1.70;39.10
37678;DHT22;23517;50.390;8.616;2023-01-29T12:15:16;1.80;39.00
37678;DHT22;23517;50.390;8.616;2023-01-29T12:18:04;1.80;39.40
37678;DHT22;23517;50.390;8.616;2023-01-29T12:20:58;1.80;39.20
37678;DHT22;23517;50.390;8.616;2023-01-29T12:23:39;1.60;39.30
37678;DHT22;23517;50.390;8.616;2023-01-29T12:26:37;1.60;39.30
37678;DHT22;23517;50.390;8.616;2023-01-29T12:29:30;1.80;39.00
37678;DHT22;23517;50.390;8.616;2023-01-29T12:32:25;2.00;38.70
37678;DHT22;23517;50.390;8.616;2023-01-29T12:40:51;1.40;39.80
37678;DHT22;23517;50.390;8.616;2023-01-29T12:43:37;1.40;40.30
37678;DHT22;23517;50.390;8.616;2023-01-29T12:46:28;1.40;39.90
37678;DHT22;23517;50.390;8.616;2023-01-29T12:49:02;1.30;40.20
37678;DHT22;23517;50.390;8.616;2023-01-29T12:51:35;1.30;40.30
37678;DHT22;23517;50.390;8.616;2023-01-29T12:54:08;1.20;40.80
37678;DHT22;23517;50.390;8.616;2023-01-29T12:56:42;1.20;41.10
37678;DHT22;23517;50.390;8.616;2023-01-29T12:59:25;1.10;42.30
37678;DHT22;23517;50.390;8.616;2023-01-29T13:02:03;1.10;42.20
37678;DHT22;23517;50.390;8.616;2023-01-29T13:04:44;1.10;41.80
37678;DHT22;23517;50.390;8.616;2023-01-29T13:07:24;1.20;42.00
37678;DHT22;23517;50.390;8.616;2023-01-29T13:09:57;1.20;42.30
37678;DHT22;23517;50.390;8.616;2023-01-29T13:12:33;1.10;42.40
37678;DHT22;23517;50.390;8.616;2023-01-29T13:15:22;1.10;42.90
37678;DHT22;23517;50.390;8.616;2023-01-29T13:21:04;1.30;41.00
37678;DHT22;23517;50.390;8.616;2023-01-29T13:23:35;1.40;40.70
37678;DHT22;23517;50.390;8.616;2023-01-29T13:26:04;1.50;40.50
37678;DHT22;23517;50.390;8.616;2023-01-29T13:28:32;1.50;40.80
37678;DHT22;23517;50.390;8.616;2023-01-29T13:36:41;1.40;41.20
37678;DHT22;23517;50.390;8.616;2023-01-29T13:39:39;1.40;41.00
37678;DHT22;23517;50.390;8.616;2023-01-29T13:42:22;1.40;41.10
37678;DHT22;23517;50.390;8.616;2023-01-29T13:44:53;1.40;41.20
37678;DHT22;23517;50.390;8.616;2023-01-29T13:47:29;1.50;41.10
37678;DHT22;23517;50.390;8.616;2023-01-29T13:50:04;1.50;41.00
37678;DHT22;23517;50.390;8.616;2023-01-29T13:53:01;1.40;40.80
37678;DHT22;23517;50.390;8.616;2023-01-29T13:55:37;1.40;41.60
37678;DHT22;23517;50.390;8.616;2023-01-29T13:58:06;1.40;41.00
37678;DHT22;23517;50.390;8.616;2023-01-29T14:05:41;1.40;41.20
37678;DHT22;23517;50.390;8.616;2023-01-29T14:10:42;1.40;41.60
37678;DHT22;23517;50.390;8.616;2023-01-29T14:13:25;1.40;41.40
37678;DHT22;23517;50.390;8.616;2023-01-29T14:18:24;1.40;41.40
37678;DHT22;23517;50.390;8.616;2023-01-29T14:23:50;1.30;40.80
37678;DHT22;23517;50.390;8.616;2023-01-29T14:31:57;1.20;41.10
37678;DHT22;23517;50.390;8.616;2023-01-29T14:34:41;1.20;40.80
37678;DHT22;23517;50.390;8.616;2023-01-29T14:42:21;1.10;41.30
37678;DHT22;23517;50.390;8.616;2023-01-29T14:44:59;1.00;41.30
37678;DHT22;23517;50.390;8.616;2023-01-29T14:56:19;1.00;41.60
37678;DHT22;23517;50.390;8.616;2023-01-29T14:58:53;1.00;41.80
37678;DHT22;23517;50.390;8.616;2023-01-29T15:01:29;1.00;41.70
37678;DHT22;23517;50.390;8.616;2023-01-29T15:04:28;0.90;42.00
37678;DHT22;23517;50.390;8.616;2023-01-29T15:07:04;0.90;42.20
37678;DHT22;23517;50.390;8.616;2023-01-29T15:09:41;0.90;42.80
37678;DHT22;23517;50.390;8.616;2023-01-29T15:15:24;0.80;42.70
37678;DHT22;23517;50.390;8.616;2023-01-29T15:18:12;0.80;42.60
37678;DHT22;23517;50.390;8.616;2023-01-29T15:20:42;0.80;42.70
37678;DHT22;23517;50.390;8.616;2023-01-29T15:23:30;0.70;43.10
37678;DHT22;23517;50.390;8.616;2023-01-29T15:26:00;0.70;43.10
37678;DHT22;23517;50.390;8.616;2023-01-29T15:28:30;0.80;42.70
37678;DHT22;23517;50.390;8.616;2023-01-29T15:31:00;0.70;43.20
37678;DHT22;23517;50.390;8.616;2023-01-29T15:33:30;0.60;43.80
37678;DHT22;23517;50.390;8.616;2023-01-29T15:36:02;0.50;44.40
37678;DHT22;23517;50.390;8.616;2023-01-29T15:38:34;0.40;44.80
37678;DHT22;23517;50.390;8.616;2023-01-29T15:41:03;0.40;45.20
37678;DHT22;23517;50.390;8.616;2023-01-29T15:43:46;0.40;45.60
37678;DHT22;23517;50.390;8.616;2023-01-29T15:46:31;0.30;45.90
37678;DHT22;23517;50.390;8.616;2023-01-29T15:49:04;0.20;46.30
37678;DHT22;23517;50.390;8.616;2023-01-29T15:51:32;0.20;47.20
37678;DHT22;23517;50.390;8.616;2023-01-29T15:54:05;0.10;47.50
37678;DHT22;23517;50.390;8.616;2023-01-29T15:56:47;0.10;47.80
37678;DHT22;23517;50.390;8.616;2023-01-29T15:59:18;0.00;48.20
37678;DHT22;23517;50.390;8.616;2023-01-29T16:01:48;0.00;48.50
37678;DHT22;23517;50.390;8.616;2023-01-29T16:04:22;-0.10;48.70
37678;DHT22;23517;50.390;8.616;2023-01-29T16:06:55;-0.20;49.00
37678;DHT22;23517;50.390;8.616;2023-01-29T16:09:25;-0.20;49.50
37678;DHT22;23517;50.390;8.616;2023-01-29T16:11:53;-0.30;50.00
37678;DHT22;23517;50.390;8.616;2023-01-29T16:14:24;-0.30;50.60
37678;DHT22;23517;50.390;8.616;2023-01-29T16:16:51;-0.40;50.60
37678;DHT22;23517;50.390;8.616;2023-01-29T16:19:24;-0.40;51.10
37678;DHT22;23517;50.390;8.616;2023-01-29T16:21:59;-0.40;51.20
37678;DHT22;23517;50.390;8.616;2023-01-29T16:24:28;-0.50;51.60
37678;DHT22;23517;50.390;8.616;2023-01-29T16:27:09;-0.60;51.90
37678;DHT22;23517;50.390;8.616;2023-01-29T16:29:39;-0.60;52.20
37678;DHT22;23517;50.390;8.616;2023-01-29T16:32:05;-0.60;52.10
37678;DHT22;23517;50.390;8.616;2023-01-29T16:34:40;-0.30;52.40
37678;DHT22;23517;50.390;8.616;2023-01-29T16:37:24;-0.80;52.60
37678;DHT22;23517;50.390;8.616;2023-01-29T16:39:53;-0.90;52.90
37678;DHT22;23517;50.390;8.616;2023-01-29T16:44:58;-1.00;53.90
37678;DHT22;23517;50.390;8.616;2023-01-29T16:47:37;-1.10;54.10
37678;DHT22;23517;50.390;8.616;2023-01-29T16:50:25;-1.20;54.60
37678;DHT22;23517;50.390;8.616;2023-01-29T16:53:17;-1.20;54.80
37678;DHT22;23517;50.390;8.616;2023-01-29T16:55:50;-1.30;55.00
37678;DHT22;23517;50.390;8.616;2023-01-29T16:58:24;-1.30;55.20
37678;DHT22;23517;50.390;8.616;2023-01-29T17:01:10;-1.40;55.40
37678;DHT22;23517;50.390;8.616;2023-01-29T17:03:38;-1.40;55.70
37678;DHT22;23517;50.390;8.616;2023-01-29T17:06:18;-1.50;56.00
37678;DHT22;23517;50.390;8.616;2023-01-29T17:08:47;-1.40;56.00
37678;DHT22;23517;50.390;8.616;2023-01-29T17:11:25;-1.50;56.10
37678;DHT22;23517;50.390;8.616;2023-01-29T17:13:58;-1.50;56.80
37678;DHT22;23517;50.390;8.616;2023-01-29T17:16:31;-1.60;56.70
37678;DHT22;23517;50.390;8.616;2023-01-29T17:19:00;-1.60;56.90
37678;DHT22;23517;50.390;8.616;2023-01-29T17:21:30;-1.60;57.10
37678;DHT22;23517;50.390;8.616;2023-01-29T17:23:56;-1.60;57.60
37678;DHT22;23517;50.390;8.616;2023-01-29T17:26:23;-1.60;57.40
37678;DHT22;23517;50.390;8.616;2023-01-29T17:28:50;-1.60;57.50
37678;DHT22;23517;50.390;8.616;2023-01-29T17:31:17;-1.60;57.20
37678;DHT22;23517;50.390;8.616;2023-01-29T17:33:44;-1.60;56.80
37678;DHT22;23517;50.390;8.616;2023-01-29T17:36:15;-1.70;56.90
37678;DHT22;23517;50.390;8.616;2023-01-29T17:38:43;-1.80;57.50
37678;DHT22;23517;50.390;8.616;2023-01-29T17:41:23;-1.80;58.10
37678;DHT22;23517;50.390;8.616;2023-01-29T17:43:51;-1.80;58.00
37678;DHT22;23517;50.390;8.616;2023-01-29T17:46:18;-1.90;58.00
37678;DHT22;23517;50.390;8.616;2023-01-29T17:48:46;-1.90;58.10
37678;DHT22;23517;50.390;8.616;2023-01-29T17:51:15;-1.90;58.30
37678;DHT22;23517;50.390;8.616;2023-01-29T17:53:43;-1.90;58.60
37678;DHT22;23517;50.390;8.616;2023-01-29T17:56:19;-2.00;58.50
37678;DHT22;23517;50.390;8.616;2023-01-29T17:58:48;-2.00;58.60
37678;DHT22;23517;50.390;8.616;2023-01-29T18:01:15;-2.00;58.70
37678;DHT22;23517;50.390;8.616;2023-01-29T18:03:42;-2.10;58.70
37678;DHT22;23517;50.390;8.616;2023-01-29T18:06:10;-2.10;58.70
37678;DHT22;23517;50.390;8.616;2023-01-29T18:08:47;-2.20;58.80
37678;DHT22;23517;50.390;8.616;2023-01-29T18:11:13;-2.20;59.10
37678;DHT22;23517;50.390;8.616;2023-01-29T18:13:40;-2.30;58.80